sensor_id;sensor_type;location;lat;lon;timestamp;P1;durP1;ratioP1;P2;durP2;ratioP2
71679;SDS011;59512;42.662;23.254;2023-04-29T00:00:03;14.73;;;5.97;;
71679;SDS011;59512;42.662;23.254;2023-04-29T00:02:30;11.15;;;4.88;;
71679;SDS011;59512;42.662;23.254;2023-04-29T00:04:56;12.00;;;5.60;;
71679;SDS011;59512;42.662;23.254;2023-04-29T00:07:22;11.23;;;5.20;;
71679;SDS011;59512;42.662;23.254;2023-04-29T00:09:47;11.07;;;4.77;;
71679;SDS011;59512;42.662;23.254;2023-04-29T00:12:13;10.52;;;4.70;;
71679;SDS011;59512;42.662;23.254;2023-04-29T00:14:38;9.80;;;4.77;;
71679;SDS011;59512;42.662;23.254;2023-04-29T00:17:04;10.83;;;4.80;;
71679;SDS011;59512;42.662;23.254;2023-04-29T00:19:29;10.02;;;4.75;;
71679;SDS011;59512;42.662;23.254;2023-04-29T00:21:55;10.43;;;5.00;;
71679;SDS011;59512;42.662;23.254;2023-04-29T00:24:20;10.20;;;5.40;;
71679;SDS011;59512;42.662;23.254;2023-04-29T00:26:46;11.50;;;5.23;;
71679;SDS011;59512;42.662;23.254;2023-04-29T00:29:11;9.27;;;4.93;;
71679;SDS011;59512;42.662;23.254;2023-04-29T00:31:36;12.40;;;5.50;;
71679;SDS011;59512;42.662;23.254;2023-04-29T00:34:02;10.97;;;5.70;;
71679;SDS011;59512;42.662;23.254;2023-04-29T00:36:27;11.00;;;5.67;;
71679;SDS011;59512;42.662;23.254;2023-04-29T00:38:53;9.97;;;5.47;;
71679;SDS011;59512;42.662;23.254;2023-04-29T00:41:19;9.07;;;5.60;;
71679;SDS011;59512;42.662;23.254;2023-04-29T00:43:45;11.13;;;6.10;;
71679;SDS011;59512;42.662;23.254;2023-04-29T00:46:10;15.18;;;8.23;;
71679;SDS011;59512;42.662;23.254;2023-04-29T00:48:35;11.00;;;6.87;;
71679;SDS011;59512;42.662;23.254;2023-04-29T00:51:01;14.80;;;7.47;;
71679;SDS011;59512;42.662;23.254;2023-04-29T00:53:28;14.43;;;7.60;;
71679;SDS011;59512;42.662;23.254;2023-04-29T00:55:53;13.98;;;7.20;;
71679;SDS011;59512;42.662;23.254;2023-04-29T00:58:20;12.20;;;7.35;;
71679;SDS011;59512;42.662;23.254;2023-04-29T01:00:46;13.05;;;7.03;;
71679;SDS011;59512;42.662;23.254;2023-04-29T01:03:13;11.75;;;7.38;;
71679;SDS011;59512;42.662;23.254;2023-04-29T01:05:39;12.25;;;7.28;;
71679;SDS011;59512;42.662;23.254;2023-04-29T01:08:11;12.50;;;7.73;;
71679;SDS011;59512;42.662;23.254;2023-04-29T01:10:44;15.18;;;7.50;;
71679;SDS011;59512;42.662;23.254;2023-04-29T01:13:20;14.25;;;7.72;;
71679;SDS011;59512;42.662;23.254;2023-04-29T01:15:54;13.05;;;7.78;;
71679;SDS011;59512;42.662;23.254;2023-04-29T01:21:10;17.15;;;9.18;;
71679;SDS011;59512;42.662;23.254;2023-04-29T01:23:35;15.93;;;8.80;;
71679;SDS011;59512;42.662;23.254;2023-04-29T01:26:01;14.90;;;8.48;;
71679;SDS011;59512;42.662;23.254;2023-04-29T01:28:35;14.17;;;8.10;;
71679;SDS011;59512;42.662;23.254;2023-04-29T01:39:26;13.73;;;7.88;;
71679;SDS011;59512;42.662;23.254;2023-04-29T01:44:46;14.00;;;7.60;;
71679;SDS011;59512;42.662;23.254;2023-04-29T01:47:13;17.03;;;7.43;;
71679;SDS011;59512;42.662;23.254;2023-04-29T01:49:39;13.50;;;7.65;;
71679;SDS011;59512;42.662;23.254;2023-04-29T01:52:05;16.67;;;8.40;;
71679;SDS011;59512;42.662;23.254;2023-04-29T01:54:31;11.38;;;7.47;;
71679;SDS011;59512;42.662;23.254;2023-04-29T01:57:00;13.13;;;7.43;;
71679;SDS011;59512;42.662;23.254;2023-04-29T01:59:26;12.43;;;6.80;;
71679;SDS011;59512;42.662;23.254;2023-04-29T02:01:51;13.60;;;7.43;;
71679;SDS011;59512;42.662;23.254;2023-04-29T02:04:17;14.17;;;7.33;;
71679;SDS011;59512;42.662;23.254;2023-04-29T02:06:42;16.73;;;8.83;;
71679;SDS011;59512;42.662;23.254;2023-04-29T02:09:08;13.98;;;7.95;;
71679;SDS011;59512;42.662;23.254;2023-04-29T02:11:33;15.07;;;7.67;;
71679;SDS011;59512;42.662;23.254;2023-04-29T02:13:59;15.93;;;7.80;;
71679;SDS011;59512;42.662;23.254;2023-04-29T02:16:24;12.55;;;7.18;;
71679;SDS011;59512;42.662;23.254;2023-04-29T02:18:50;15.30;;;7.30;;
71679;SDS011;59512;42.662;23.254;2023-04-29T02:21:15;11.93;;;6.57;;
71679;SDS011;59512;42.662;23.254;2023-04-29T02:23:41;12.50;;;6.77;;
71679;SDS011;59512;42.662;23.254;2023-04-29T02:26:06;16.17;;;7.57;;
71679;SDS011;59512;42.662;23.254;2023-04-29T02:28:33;15.55;;;7.50;;
71679;SDS011;59512;42.662;23.254;2023-04-29T02:30:58;15.35;;;7.40;;
71679;SDS011;59512;42.662;23.254;2023-04-29T02:33:24;15.30;;;7.78;;
71679;SDS011;59512;42.662;23.254;2023-04-29T02:35:49;12.90;;;8.13;;
71679;SDS011;59512;42.662;23.254;2023-04-29T02:38:15;14.30;;;7.60;;
71679;SDS011;59512;42.662;23.254;2023-04-29T02:40:41;13.10;;;7.20;;
71679;SDS011;59512;42.662;23.254;2023-04-29T02:43:07;12.68;;;6.85;;
71679;SDS011;59512;42.662;23.254;2023-04-29T02:45:33;16.73;;;7.10;;
71679;SDS011;59512;42.662;23.254;2023-04-29T02:47:59;12.77;;;7.33;;
71679;SDS011;59512;42.662;23.254;2023-04-29T02:50:24;13.93;;;7.10;;
71679;SDS011;59512;42.662;23.254;2023-04-29T02:52:50;13.80;;;7.17;;
71679;SDS011;59512;42.662;23.254;2023-04-29T02:55:15;12.67;;;6.83;;
71679;SDS011;59512;42.662;23.254;2023-04-29T02:57:42;12.15;;;6.85;;
71679;SDS011;59512;42.662;23.254;2023-04-29T03:00:08;13.77;;;7.63;;
71679;SDS011;59512;42.662;23.254;2023-04-29T03:02:35;15.13;;;8.55;;
71679;SDS011;59512;42.662;23.254;2023-04-29T03:05:01;20.83;;;8.77;;
71679;SDS011;59512;42.662;23.254;2023-04-29T03:07:27;16.90;;;8.55;;
71679;SDS011;59512;42.662;23.254;2023-04-29T03:09:54;15.75;;;9.05;;
71679;SDS011;59512;42.662;23.254;2023-04-29T03:12:20;15.47;;;8.63;;
71679;SDS011;59512;42.662;23.254;2023-04-29T03:14:45;17.88;;;8.35;;
71679;SDS011;59512;42.662;23.254;2023-04-29T03:17:11;16.40;;;9.00;;
71679;SDS011;59512;42.662;23.254;2023-04-29T03:19:36;18.73;;;8.85;;
71679;SDS011;59512;42.662;23.254;2023-04-29T03:22:02;13.70;;;8.67;;
71679;SDS011;59512;42.662;23.254;2023-04-29T03:24:27;15.80;;;9.10;;
71679;SDS011;59512;42.662;23.254;2023-04-29T03:26:53;15.70;;;9.30;;
71679;SDS011;59512;42.662;23.254;2023-04-29T03:29:18;16.07;;;9.63;;
71679;SDS011;59512;42.662;23.254;2023-04-29T03:31:44;19.23;;;9.63;;
71679;SDS011;59512;42.662;23.254;2023-04-29T03:34:09;17.00;;;9.67;;
71679;SDS011;59512;42.662;23.254;2023-04-29T03:36:35;18.55;;;10.30;;
71679;SDS011;59512;42.662;23.254;2023-04-29T03:39:00;17.73;;;9.67;;
71679;SDS011;59512;42.662;23.254;2023-04-29T03:41:26;14.23;;;9.23;;
71679;SDS011;59512;42.662;23.254;2023-04-29T03:43:51;16.97;;;9.90;;
71679;SDS011;59512;42.662;23.254;2023-04-29T03:46:18;17.50;;;10.25;;
71679;SDS011;59512;42.662;23.254;2023-04-29T03:48:44;14.95;;;10.05;;
71679;SDS011;59512;42.662;23.254;2023-04-29T03:51:09;15.37;;;9.67;;
71679;SDS011;59512;42.662;23.254;2023-04-29T03:53:35;16.90;;;10.13;;
71679;SDS011;59512;42.662;23.254;2023-04-29T03:56:01;19.27;;;10.05;;
71679;SDS011;59512;42.662;23.254;2023-04-29T03:58:27;19.50;;;10.33;;
71679;SDS011;59512;42.662;23.254;2023-04-29T04:00:52;18.90;;;10.00;;
71679;SDS011;59512;42.662;23.254;2023-04-29T04:03:19;19.30;;;10.55;;
71679;SDS011;59512;42.662;23.254;2023-04-29T04:05:44;20.27;;;11.40;;
71679;SDS011;59512;42.662;23.254;2023-04-29T04:08:10;19.20;;;10.90;;
71679;SDS011;59512;42.662;23.254;2023-04-29T04:10:35;16.20;;;10.87;;
71679;SDS011;59512;42.662;23.254;2023-04-29T04:13:01;18.48;;;10.57;;
71679;SDS011;59512;42.662;23.254;2023-04-29T04:15:26;20.63;;;10.75;;
71679;SDS011;59512;42.662;23.254;2023-04-29T04:17:51;19.70;;;10.30;;
71679;SDS011;59512;42.662;23.254;2023-04-29T04:20:17;17.50;;;10.10;;
71679;SDS011;59512;42.662;23.254;2023-04-29T04:22:42;19.83;;;10.30;;
71679;SDS011;59512;42.662;23.254;2023-04-29T04:25:08;18.37;;;10.17;;
71679;SDS011;59512;42.662;23.254;2023-04-29T04:27:34;19.73;;;10.07;;
71679;SDS011;59512;42.662;23.254;2023-04-29T04:29:59;18.50;;;10.20;;
71679;SDS011;59512;42.662;23.254;2023-04-29T04:32:25;18.02;;;9.88;;
71679;SDS011;59512;42.662;23.254;2023-04-29T04:34:50;19.85;;;10.57;;
71679;SDS011;59512;42.662;23.254;2023-04-29T04:37:16;17.63;;;10.03;;
71679;SDS011;59512;42.662;23.254;2023-04-29T04:39:41;15.60;;;9.30;;
71679;SDS011;59512;42.662;23.254;2023-04-29T04:42:07;21.75;;;9.70;;
71679;SDS011;59512;42.662;23.254;2023-04-29T04:44:32;20.00;;;10.20;;
71679;SDS011;59512;42.662;23.254;2023-04-29T04:46:58;20.07;;;10.47;;
71679;SDS011;59512;42.662;23.254;2023-04-29T04:49:26;17.92;;;9.90;;
71679;SDS011;59512;42.662;23.254;2023-04-29T04:51:52;16.77;;;10.27;;
71679;SDS011;59512;42.662;23.254;2023-04-29T04:54:18;16.10;;;9.95;;
71679;SDS011;59512;42.662;23.254;2023-04-29T04:56:44;24.85;;;12.85;;
71679;SDS011;59512;42.662;23.254;2023-04-29T04:59:09;16.67;;;10.43;;
71679;SDS011;59512;42.662;23.254;2023-04-29T05:01:35;20.23;;;12.57;;
71679;SDS011;59512;42.662;23.254;2023-04-29T05:04:00;20.37;;;11.67;;
71679;SDS011;59512;42.662;23.254;2023-04-29T05:06:27;18.90;;;12.05;;
71679;SDS011;59512;42.662;23.254;2023-04-29T05:08:52;20.10;;;11.95;;
71679;SDS011;59512;42.662;23.254;2023-04-29T05:11:18;21.48;;;11.13;;
71679;SDS011;59512;42.662;23.254;2023-04-29T05:13:47;23.60;;;12.47;;
71679;SDS011;59512;42.662;23.254;2023-04-29T05:16:12;21.70;;;11.90;;
71679;SDS011;59512;42.662;23.254;2023-04-29T05:18:39;23.23;;;13.00;;
71679;SDS011;59512;42.662;23.254;2023-04-29T05:21:05;20.33;;;12.70;;
71679;SDS011;59512;42.662;23.254;2023-04-29T05:23:30;19.40;;;11.50;;
71679;SDS011;59512;42.662;23.254;2023-04-29T05:25:55;20.10;;;11.70;;
71679;SDS011;59512;42.662;23.254;2023-04-29T05:28:21;18.37;;;10.83;;
71679;SDS011;59512;42.662;23.254;2023-04-29T05:30:49;22.63;;;11.83;;
71679;SDS011;59512;42.662;23.254;2023-04-29T05:33:15;19.65;;;10.88;;
71679;SDS011;59512;42.662;23.254;2023-04-29T05:35:40;19.47;;;11.27;;
71679;SDS011;59512;42.662;23.254;2023-04-29T05:38:06;18.97;;;11.53;;
71679;SDS011;59512;42.662;23.254;2023-04-29T05:40:31;20.33;;;10.98;;
71679;SDS011;59512;42.662;23.254;2023-04-29T05:42:56;18.50;;;11.20;;
71679;SDS011;59512;42.662;23.254;2023-04-29T05:45:22;23.00;;;11.73;;
71679;SDS011;59512;42.662;23.254;2023-04-29T05:47:47;19.40;;;11.03;;
71679;SDS011;59512;42.662;23.254;2023-04-29T05:50:13;21.53;;;12.00;;
71679;SDS011;59512;42.662;23.254;2023-04-29T05:52:38;26.07;;;12.93;;
71679;SDS011;59512;42.662;23.254;2023-04-29T05:55:04;20.75;;;12.52;;
71679;SDS011;59512;42.662;23.254;2023-04-29T05:57:29;21.63;;;12.27;;
71679;SDS011;59512;42.662;23.254;2023-04-29T05:59:56;18.65;;;12.52;;
71679;SDS011;59512;42.662;23.254;2023-04-29T06:02:21;19.17;;;11.97;;
71679;SDS011;59512;42.662;23.254;2023-04-29T06:04:47;18.63;;;12.20;;
71679;SDS011;59512;42.662;23.254;2023-04-29T06:07:12;19.17;;;11.70;;
71679;SDS011;59512;42.662;23.254;2023-04-29T06:09:38;17.70;;;11.70;;
71679;SDS011;59512;42.662;23.254;2023-04-29T06:12:03;17.05;;;11.40;;
71679;SDS011;59512;42.662;23.254;2023-04-29T06:14:29;17.50;;;11.07;;
71679;SDS011;59512;42.662;23.254;2023-04-29T06:16:55;19.02;;;11.15;;
71679;SDS011;59512;42.662;23.254;2023-04-29T06:19:20;19.23;;;10.77;;
71679;SDS011;59512;42.662;23.254;2023-04-29T06:21:46;17.77;;;10.47;;
71679;SDS011;59512;42.662;23.254;2023-04-29T06:24:11;17.87;;;10.80;;
71679;SDS011;59512;42.662;23.254;2023-04-29T06:26:37;18.25;;;10.48;;
71679;SDS011;59512;42.662;23.254;2023-04-29T06:29:02;19.13;;;10.63;;
71679;SDS011;59512;42.662;23.254;2023-04-29T06:31:27;19.17;;;11.10;;
71679;SDS011;59512;42.662;23.254;2023-04-29T06:33:53;18.73;;;11.60;;
71679;SDS011;59512;42.662;23.254;2023-04-29T06:36:19;22.13;;;11.68;;
71679;SDS011;59512;42.662;23.254;2023-04-29T06:38:44;20.30;;;12.00;;
71679;SDS011;59512;42.662;23.254;2023-04-29T06:41:10;20.87;;;11.83;;
71679;SDS011;59512;42.662;23.254;2023-04-29T06:43:35;19.83;;;11.53;;
71679;SDS011;59512;42.662;23.254;2023-04-29T06:46:01;23.17;;;13.68;;
71679;SDS011;59512;42.662;23.254;2023-04-29T06:48:26;18.20;;;11.20;;
71679;SDS011;59512;42.662;23.254;2023-04-29T06:50:52;20.43;;;12.53;;
71679;SDS011;59512;42.662;23.254;2023-04-29T06:53:19;18.13;;;12.18;;
71679;SDS011;59512;42.662;23.254;2023-04-29T06:55:45;20.87;;;12.20;;
71679;SDS011;59512;42.662;23.254;2023-04-29T06:58:13;20.20;;;12.63;;
71679;SDS011;59512;42.662;23.254;2023-04-29T07:00:42;19.45;;;11.82;;
71679;SDS011;59512;42.662;23.254;2023-04-29T07:03:08;21.43;;;12.43;;
71679;SDS011;59512;42.662;23.254;2023-04-29T07:05:35;20.80;;;11.93;;
71679;SDS011;59512;42.662;23.254;2023-04-29T07:08:00;19.38;;;12.20;;
71679;SDS011;59512;42.662;23.254;2023-04-29T07:10:26;18.03;;;12.20;;
71679;SDS011;59512;42.662;23.254;2023-04-29T07:12:52;17.63;;;10.60;;
71679;SDS011;59512;42.662;23.254;2023-04-29T07:15:17;20.83;;;13.03;;
71679;SDS011;59512;42.662;23.254;2023-04-29T07:17:43;20.43;;;12.03;;
71679;SDS011;59512;42.662;23.254;2023-04-29T07:20:08;21.30;;;11.60;;
71679;SDS011;59512;42.662;23.254;2023-04-29T07:22:34;17.92;;;11.52;;
71679;SDS011;59512;42.662;23.254;2023-04-29T07:24:59;17.70;;;11.68;;
71679;SDS011;59512;42.662;23.254;2023-04-29T07:27:25;15.63;;;10.70;;
71679;SDS011;59512;42.662;23.254;2023-04-29T07:29:51;16.40;;;11.33;;
71679;SDS011;59512;42.662;23.254;2023-04-29T07:32:16;19.85;;;10.30;;
71679;SDS011;59512;42.662;23.254;2023-04-29T07:34:42;16.77;;;10.90;;
71679;SDS011;59512;42.662;23.254;2023-04-29T07:37:07;19.43;;;10.83;;
71679;SDS011;59512;42.662;23.254;2023-04-29T07:39:33;21.90;;;10.32;;
71679;SDS011;59512;42.662;23.254;2023-04-29T07:41:59;17.30;;;10.00;;
71679;SDS011;59512;42.662;23.254;2023-04-29T07:44:25;16.13;;;9.27;;
71679;SDS011;59512;42.662;23.254;2023-04-29T07:46:50;18.30;;;9.63;;
71679;SDS011;59512;42.662;23.254;2023-04-29T07:49:15;15.23;;;9.40;;
71679;SDS011;59512;42.662;23.254;2023-04-29T07:51:41;16.77;;;8.98;;
71679;SDS011;59512;42.662;23.254;2023-04-29T07:54:07;16.17;;;8.37;;
71679;SDS011;59512;42.662;23.254;2023-04-29T07:56:33;15.88;;;8.65;;
71679;SDS011;59512;42.662;23.254;2023-04-29T07:58:59;12.97;;;8.40;;
71679;SDS011;59512;42.662;23.254;2023-04-29T08:01:25;13.63;;;8.07;;
71679;SDS011;59512;42.662;23.254;2023-04-29T08:03:51;16.90;;;9.00;;
71679;SDS011;59512;42.662;23.254;2023-04-29T08:06:17;15.32;;;9.02;;
71679;SDS011;59512;42.662;23.254;2023-04-29T08:08:45;15.77;;;8.35;;
71679;SDS011;59512;42.662;23.254;2023-04-29T08:11:17;16.97;;;8.30;;
71679;SDS011;59512;42.662;23.254;2023-04-29T08:13:43;15.90;;;8.90;;
71679;SDS011;59512;42.662;23.254;2023-04-29T08:16:08;19.23;;;9.83;;
71679;SDS011;59512;42.662;23.254;2023-04-29T08:18:34;13.10;;;9.25;;
71679;SDS011;59512;42.662;23.254;2023-04-29T08:21:00;15.70;;;9.20;;
71679;SDS011;59512;42.662;23.254;2023-04-29T08:23:26;18.13;;;8.90;;
71679;SDS011;59512;42.662;23.254;2023-04-29T08:25:53;14.77;;;9.68;;
71679;SDS011;59512;42.662;23.254;2023-04-29T08:28:20;17.80;;;9.50;;
71679;SDS011;59512;42.662;23.254;2023-04-29T08:30:46;17.97;;;9.60;;
71679;SDS011;59512;42.662;23.254;2023-04-29T08:33:11;19.20;;;9.75;;
71679;SDS011;59512;42.662;23.254;2023-04-29T08:35:37;17.30;;;10.00;;
71679;SDS011;59512;42.662;23.254;2023-04-29T08:38:03;16.63;;;9.17;;
71679;SDS011;59512;42.662;23.254;2023-04-29T08:40:32;13.57;;;8.23;;
71679;SDS011;59512;42.662;23.254;2023-04-29T08:42:58;12.68;;;8.50;;
71679;SDS011;59512;42.662;23.254;2023-04-29T08:45:24;16.55;;;8.45;;
71679;SDS011;59512;42.662;23.254;2023-04-29T08:47:51;16.73;;;9.32;;
71679;SDS011;59512;42.662;23.254;2023-04-29T08:50:17;16.20;;;8.00;;
71679;SDS011;59512;42.662;23.254;2023-04-29T08:52:42;17.30;;;8.98;;
71679;SDS011;59512;42.662;23.254;2023-04-29T08:55:08;13.87;;;8.30;;
71679;SDS011;59512;42.662;23.254;2023-04-29T08:57:36;17.00;;;8.53;;
71679;SDS011;59512;42.662;23.254;2023-04-29T09:00:03;14.50;;;8.27;;
71679;SDS011;59512;42.662;23.254;2023-04-29T09:02:31;13.85;;;8.05;;
71679;SDS011;59512;42.662;23.254;2023-04-29T09:07:30;15.77;;;7.55;;
71679;SDS011;59512;42.662;23.254;2023-04-29T09:09:56;15.05;;;8.90;;
71679;SDS011;59512;42.662;23.254;2023-04-29T09:12:23;13.93;;;7.90;;
71679;SDS011;59512;42.662;23.254;2023-04-29T09:14:48;17.20;;;8.70;;
71679;SDS011;59512;42.662;23.254;2023-04-29T09:17:13;16.90;;;9.23;;
71679;SDS011;59512;42.662;23.254;2023-04-29T09:19:40;12.48;;;8.48;;
71679;SDS011;59512;42.662;23.254;2023-04-29T09:22:06;13.73;;;8.65;;
71679;SDS011;59512;42.662;23.254;2023-04-29T09:24:32;16.53;;;9.20;;
71679;SDS011;59512;42.662;23.254;2023-04-29T09:26:58;15.80;;;9.13;;
71679;SDS011;59512;42.662;23.254;2023-04-29T09:29:23;13.33;;;8.87;;
71679;SDS011;59512;42.662;23.254;2023-04-29T09:31:49;17.10;;;8.27;;
71679;SDS011;59512;42.662;23.254;2023-04-29T09:34:15;13.77;;;8.77;;
71679;SDS011;59512;42.662;23.254;2023-04-29T09:39:15;17.10;;;8.50;;
71679;SDS011;59512;42.662;23.254;2023-04-29T09:44:14;16.25;;;8.77;;
71679;SDS011;59512;42.662;23.254;2023-04-29T09:46:40;15.48;;;9.25;;
71679;SDS011;59512;42.662;23.254;2023-04-29T09:49:27;16.27;;;9.37;;
71679;SDS011;59512;42.662;23.254;2023-04-29T09:51:57;17.10;;;8.68;;
71679;SDS011;59512;42.662;23.254;2023-04-29T09:54:27;19.52;;;9.30;;
71679;SDS011;59512;42.662;23.254;2023-04-29T09:56:54;15.35;;;8.57;;
71679;SDS011;59512;42.662;23.254;2023-04-29T09:59:20;15.98;;;8.63;;
71679;SDS011;59512;42.662;23.254;2023-04-29T10:01:47;14.10;;;8.40;;
71679;SDS011;59512;42.662;23.254;2023-04-29T10:04:14;15.35;;;8.30;;
71679;SDS011;59512;42.662;23.254;2023-04-29T10:06:41;13.13;;;8.27;;
71679;SDS011;59512;42.662;23.254;2023-04-29T10:09:07;15.23;;;7.95;;
71679;SDS011;59512;42.662;23.254;2023-04-29T10:11:33;14.35;;;7.38;;
71679;SDS011;59512;42.662;23.254;2023-04-29T10:14:00;15.73;;;7.90;;
71679;SDS011;59512;42.662;23.254;2023-04-29T10:16:27;15.07;;;7.10;;
71679;SDS011;59512;42.662;23.254;2023-04-29T10:18:54;13.73;;;7.03;;
71679;SDS011;59512;42.662;23.254;2023-04-29T10:21:27;14.02;;;7.05;;
71679;SDS011;59512;42.662;23.254;2023-04-29T10:23:56;12.73;;;7.13;;
71679;SDS011;59512;42.662;23.254;2023-04-29T10:26:26;11.80;;;6.93;;
71679;SDS011;59512;42.662;23.254;2023-04-29T10:28:55;10.68;;;6.88;;
71679;SDS011;59512;42.662;23.254;2023-04-29T10:31:21;12.60;;;7.20;;
71679;SDS011;59512;42.662;23.254;2023-04-29T10:33:46;13.57;;;7.57;;
71679;SDS011;59512;42.662;23.254;2023-04-29T10:36:12;15.43;;;7.63;;
71679;SDS011;59512;42.662;23.254;2023-04-29T10:38:39;13.83;;;7.30;;
71679;SDS011;59512;42.662;23.254;2023-04-29T10:41:21;12.20;;;6.55;;
71679;SDS011;59512;42.662;23.254;2023-04-29T10:43:52;13.80;;;6.30;;
71679;SDS011;59512;42.662;23.254;2023-04-29T10:46:18;12.93;;;6.07;;
71679;SDS011;59512;42.662;23.254;2023-04-29T10:48:50;13.40;;;6.20;;
71679;SDS011;59512;42.662;23.254;2023-04-29T10:51:31;12.63;;;5.40;;
71679;SDS011;59512;42.662;23.254;2023-04-29T10:56:52;10.75;;;4.88;;
71679;SDS011;59512;42.662;23.254;2023-04-29T10:59:22;12.25;;;4.80;;
71679;SDS011;59512;42.662;23.254;2023-04-29T11:02:06;9.93;;;4.80;;
71679;SDS011;59512;42.662;23.254;2023-04-29T11:04:32;10.53;;;4.60;;
71679;SDS011;59512;42.662;23.254;2023-04-29T11:06:57;12.60;;;4.90;;
71679;SDS011;59512;42.662;23.254;2023-04-29T11:14:25;11.15;;;4.35;;
71679;SDS011;59512;42.662;23.254;2023-04-29T11:16:52;12.52;;;4.40;;
71679;SDS011;59512;42.662;23.254;2023-04-29T11:19:20;9.07;;;3.53;;
71679;SDS011;59512;42.662;23.254;2023-04-29T11:21:51;11.80;;;3.83;;
71679;SDS011;59512;42.662;23.254;2023-04-29T11:24:50;11.10;;;4.90;;
71679;SDS011;59512;42.662;23.254;2023-04-29T11:27:19;8.52;;;3.42;;
71679;SDS011;59512;42.662;23.254;2023-04-29T11:29:49;8.48;;;2.67;;
71679;SDS011;59512;42.662;23.254;2023-04-29T11:32:15;7.27;;;2.70;;
71679;SDS011;59512;42.662;23.254;2023-04-29T11:34:40;7.30;;;2.90;;
71679;SDS011;59512;42.662;23.254;2023-04-29T11:37:06;6.20;;;2.83;;
71679;SDS011;59512;42.662;23.254;2023-04-29T11:39:34;5.97;;;2.40;;
71679;SDS011;59512;42.662;23.254;2023-04-29T11:42:06;7.60;;;1.98;;
71679;SDS011;59512;42.662;23.254;2023-04-29T11:44:34;7.00;;;2.35;;
71679;SDS011;59512;42.662;23.254;2023-04-29T11:47:01;6.57;;;2.27;;
71679;SDS011;59512;42.662;23.254;2023-04-29T11:49:38;7.50;;;2.50;;
71679;SDS011;59512;42.662;23.254;2023-04-29T11:52:03;8.13;;;2.28;;
71679;SDS011;59512;42.662;23.254;2023-04-29T11:54:29;9.73;;;2.90;;
71679;SDS011;59512;42.662;23.254;2023-04-29T11:56:55;26.27;;;5.38;;
71679;SDS011;59512;42.662;23.254;2023-04-29T11:59:22;8.52;;;2.80;;
71679;SDS011;59512;42.662;23.254;2023-04-29T12:01:48;7.50;;;2.70;;
71679;SDS011;59512;42.662;23.254;2023-04-29T12:04:14;7.40;;;2.37;;
71679;SDS011;59512;42.662;23.254;2023-04-29T12:06:40;7.90;;;2.30;;
71679;SDS011;59512;42.662;23.254;2023-04-29T12:09:06;6.07;;;2.00;;
71679;SDS011;59512;42.662;23.254;2023-04-29T12:11:32;6.93;;;2.00;;
71679;SDS011;59512;42.662;23.254;2023-04-29T12:13:59;6.38;;;2.30;;
71679;SDS011;59512;42.662;23.254;2023-04-29T12:16:26;8.35;;;2.45;;
71679;SDS011;59512;42.662;23.254;2023-04-29T12:18:53;6.85;;;2.50;;
71679;SDS011;59512;42.662;23.254;2023-04-29T12:21:20;5.87;;;2.20;;
71679;SDS011;59512;42.662;23.254;2023-04-29T12:23:46;7.35;;;2.30;;
71679;SDS011;59512;42.662;23.254;2023-04-29T12:26:12;7.00;;;2.58;;
71679;SDS011;59512;42.662;23.254;2023-04-29T12:28:39;9.52;;;2.50;;
71679;SDS011;59512;42.662;23.254;2023-04-29T12:31:07;6.53;;;2.30;;
71679;SDS011;59512;42.662;23.254;2023-04-29T12:33:33;6.60;;;2.30;;
71679;SDS011;59512;42.662;23.254;2023-04-29T12:35:58;6.07;;;2.30;;
71679;SDS011;59512;42.662;23.254;2023-04-29T12:38:25;6.60;;;2.47;;
71679;SDS011;59512;42.662;23.254;2023-04-29T12:40:52;9.57;;;2.90;;
71679;SDS011;59512;42.662;23.254;2023-04-29T12:43:18;7.18;;;2.10;;
71679;SDS011;59512;42.662;23.254;2023-04-29T12:45:44;6.35;;;2.10;;
71679;SDS011;59512;42.662;23.254;2023-04-29T12:48:10;7.77;;;2.17;;
71679;SDS011;59512;42.662;23.254;2023-04-29T12:50:37;6.13;;;2.13;;
71679;SDS011;59512;42.662;23.254;2023-04-29T12:53:03;6.40;;;2.10;;
71679;SDS011;59512;42.662;23.254;2023-04-29T12:55:33;7.30;;;2.13;;
71679;SDS011;59512;42.662;23.254;2023-04-29T12:58:00;6.88;;;2.30;;
71679;SDS011;59512;42.662;23.254;2023-04-29T13:00:29;7.30;;;2.67;;
71679;SDS011;59512;42.662;23.254;2023-04-29T13:02:55;9.50;;;2.90;;
71679;SDS011;59512;42.662;23.254;2023-04-29T13:05:20;9.67;;;2.10;;
71679;SDS011;59512;42.662;23.254;2023-04-29T13:07:46;5.75;;;2.20;;
71679;SDS011;59512;42.662;23.254;2023-04-29T13:10:12;5.95;;;1.98;;
71679;SDS011;59512;42.662;23.254;2023-04-29T13:12:38;8.27;;;2.20;;
71679;SDS011;59512;42.662;23.254;2023-04-29T13:15:04;6.57;;;2.20;;
71679;SDS011;59512;42.662;23.254;2023-04-29T13:17:31;4.40;;;1.50;;
71679;SDS011;59512;42.662;23.254;2023-04-29T13:19:57;5.43;;;1.80;;
71679;SDS011;59512;42.662;23.254;2023-04-29T13:22:22;7.73;;;2.07;;
71679;SDS011;59512;42.662;23.254;2023-04-29T13:24:48;7.83;;;3.00;;
71679;SDS011;59512;42.662;23.254;2023-04-29T13:27:14;7.50;;;2.08;;
71679;SDS011;59512;42.662;23.254;2023-04-29T13:29:39;6.13;;;1.77;;
71679;SDS011;59512;42.662;23.254;2023-04-29T13:32:05;6.53;;;2.63;;
71679;SDS011;59512;42.662;23.254;2023-04-29T13:34:32;5.63;;;1.52;;
71679;SDS011;59512;42.662;23.254;2023-04-29T13:36:57;6.60;;;1.90;;
71679;SDS011;59512;42.662;23.254;2023-04-29T13:39:22;5.03;;;1.92;;
71679;SDS011;59512;42.662;23.254;2023-04-29T13:41:48;7.07;;;2.27;;
71679;SDS011;59512;42.662;23.254;2023-04-29T13:44:14;5.57;;;2.20;;
71679;SDS011;59512;42.662;23.254;2023-04-29T13:46:39;5.97;;;2.30;;
71679;SDS011;59512;42.662;23.254;2023-04-29T13:49:04;6.53;;;2.17;;
71679;SDS011;59512;42.662;23.254;2023-04-29T13:51:30;4.80;;;1.90;;
71679;SDS011;59512;42.662;23.254;2023-04-29T13:53:56;6.93;;;2.53;;
71679;SDS011;59512;42.662;23.254;2023-04-29T13:56:21;7.13;;;2.90;;
71679;SDS011;59512;42.662;23.254;2023-04-29T13:58:49;6.15;;;2.30;;
71679;SDS011;59512;42.662;23.254;2023-04-29T14:01:15;5.18;;;2.15;;
71679;SDS011;59512;42.662;23.254;2023-04-29T14:03:41;4.70;;;1.83;;
71679;SDS011;59512;42.662;23.254;2023-04-29T14:06:06;5.40;;;1.90;;
71679;SDS011;59512;42.662;23.254;2023-04-29T14:08:32;5.30;;;2.30;;
71679;SDS011;59512;42.662;23.254;2023-04-29T14:10:57;5.93;;;2.40;;
71679;SDS011;59512;42.662;23.254;2023-04-29T14:13:23;8.80;;;2.90;;
71679;SDS011;59512;42.662;23.254;2023-04-29T14:15:49;5.55;;;2.42;;
71679;SDS011;59512;42.662;23.254;2023-04-29T14:18:14;6.10;;;2.70;;
71679;SDS011;59512;42.662;23.254;2023-04-29T14:20:40;6.23;;;2.77;;
71679;SDS011;59512;42.662;23.254;2023-04-29T14:23:05;7.83;;;3.27;;
71679;SDS011;59512;42.662;23.254;2023-04-29T14:25:30;8.32;;;3.30;;
71679;SDS011;59512;42.662;23.254;2023-04-29T14:27:56;7.40;;;3.17;;
71679;SDS011;59512;42.662;23.254;2023-04-29T14:30:21;7.43;;;3.10;;
71679;SDS011;59512;42.662;23.254;2023-04-29T14:32:47;8.13;;;3.43;;
71679;SDS011;59512;42.662;23.254;2023-04-29T14:35:12;7.30;;;3.20;;
71679;SDS011;59512;42.662;23.254;2023-04-29T14:37:39;7.18;;;3.55;;
71679;SDS011;59512;42.662;23.254;2023-04-29T14:40:04;7.47;;;3.17;;
71679;SDS011;59512;42.662;23.254;2023-04-29T14:42:30;9.82;;;2.97;;
71679;SDS011;59512;42.662;23.254;2023-04-29T14:44:56;8.52;;;3.17;;